createdAt,value
2019-05-23T09:42:53.948Z,46.17
2019-05-23T10:07:39.468Z,44.85
2019-05-23T11:02:55.448Z,36.28
2019-05-23T11:23:26.712Z,43.47
2019-05-23T12:10:20.862Z,37.58
2019-05-23T12:25:23.281Z,38.10
2019-05-23T12:40:20.596Z,38.48
2019-05-23T12:55:20.853Z,37.09
2019-05-23T13:10:24.292Z,34.74
2019-05-23T13:25:20.738Z,39.77
2019-05-23T13:40:20.781Z,40.24
2019-05-23T13:55:20.804Z,39.45
2019-05-23T14:10:20.545Z,37.57
2019-05-23T14:25:20.667Z,37.98
2019-05-23T14:40:20.673Z,36.06
2019-05-23T14:55:20.746Z,38.56
2019-05-23T15:10:20.725Z,39.04
2019-05-23T15:25:20.821Z,38.75
2019-05-23T15:40:20.963Z,40.83
2019-05-23T15:55:21.282Z,39.13
2019-05-23T16:10:21.367Z,37.87
2019-05-23T16:25:21.554Z,38.34
2019-05-23T16:40:22.635Z,41.51
2019-05-23T16:55:22.103Z,41.06
2019-05-23T17:10:22.098Z,45.58
2019-05-23T17:25:22.338Z,50.19
2019-05-23T17:40:25.346Z,49.01
2019-05-23T17:55:22.535Z,51.01
2019-05-23T18:10:22.858Z,53.65
2019-05-23T18:25:22.529Z,53.22
2019-05-23T18:40:22.488Z,54.18
2019-05-23T18:55:22.664Z,56.59
2019-05-23T19:10:22.509Z,59.73
2019-05-23T20:21:06.943Z,79.41
2019-05-23T20:44:09.654Z,79.89
2019-05-23T20:59:09.558Z,81.28
2019-05-23T21:14:09.401Z,82.54
2019-05-23T21:29:09.489Z,84.02
2019-05-23T21:44:09.466Z,83.91
2019-05-23T21:59:09.463Z,84.66
2019-05-23T22:14:09.521Z,84.06
2019-05-23T22:29:09.436Z,84.92
2019-05-23T22:44:09.642Z,85.21
2019-05-23T22:59:09.535Z,85.99
2019-05-23T23:14:09.451Z,86.50
2019-05-23T23:29:09.465Z,87.03
2019-05-23T23:44:09.618Z,87.24
2019-05-23T23:59:09.580Z,87.12
